Straumvik — LEYJ — position and weather

sailwx.info

Track history (hours):
 
Tides and Currents Weather Stations Pressure Air Temp Water Temp Dewpoint Dewpoint Depression Visibility Wind Speed Wind Dir Waves Ship Positions

Straumvik

Last reported at 2015-Jan-28 04:04 UTC. Time now 2015-Jan-30 12:34 UTC.
Position N 66°23' E 012°58'.

Length 50 m; draft 5 m.

Type: Ship. MMSI: 258260000.

Date/timePositionNaut miles runAvg speedWind from/ knotsBaromVisibWave heightAir tempDewpointWater temp
2015-Jan-28 04:04N 66°23' E 012°58'40 6.8
2015-Jan-27 22:15N 66°60' E 013°37'14 8.2
2015-Jan-27 20:32N 67°10' E 014°03'9 8.5
2015-Jan-27 19:32N 67°17' E 014°14'8 8.4
2015-Jan-27 18:33N 67°24' E 014°26'8 7.7
2015-Jan-27 17:34N 67°31' E 014°22'7 6.7
2015-Jan-27 16:31N 67°38' E 014°19'11 5.6
2015-Jan-27 14:28N 67°49' E 014°25'221 6.5
2015-Jan-26 04:17N 70°23' E 021°53'  
2015-Jan-23 06:10N 67°40' E 014°18'5 8.2
2015-Jan-23 05:32N 67°35' E 014°20'8 8.2
2015-Jan-23 04:33N 67°27' E 014°25'8 7.6
2015-Jan-23 03:33N 67°19' E 014°19'8 7.7
2015-Jan-23 02:33N 67°13' E 014°08'9 8.5
2015-Jan-23 01:33N 67°06' E 013°57'12 8.4
2015-Jan-23 00:08N 66°58' E 013°33'37 8.0
2015-Jan-22 19:33N 66°24' E 012°59'85 8.2
2015-Jan-22 09:12N 65°05' E 011°47'6 8.2
2015-Jan-22 08:32N 65°01' E 011°39'8 8.2
2015-Jan-22 07:33N 64°55' E 011°24'9 8.7
2015-Jan-22 06:33N 64°49' E 011°09'  
Track history (hours):
 
Tides and Currents Weather Stations Pressure Air Temp Water Temp Dewpoint Dewpoint Depression Visibility Wind Speed Wind Dir Waves Ship Positions

Straumvik

Last reported at 2015-Jan-28 04:04 UTC. Time now 2015-Jan-30 12:34 UTC.
Position N 66°23' E 012°58'.

Length 50 m; draft 5 m.

Type: Ship. MMSI: 258260000.

Date/timePositionNaut miles runAvg speedWind from/ knotsBaromVisibWave heightAir tempDewpointWater temp
2015-Jan-28 04:04N 66°23' E 012°58'40 6.8
2015-Jan-27 22:15N 66°60' E 013°37'14 8.2
2015-Jan-27 20:32N 67°10' E 014°03'9 8.5
2015-Jan-27 19:32N 67°17' E 014°14'8 8.4
2015-Jan-27 18:33N 67°24' E 014°26'8 7.7
2015-Jan-27 17:34N 67°31' E 014°22'7 6.7
2015-Jan-27 16:31N 67°38' E 014°19'11 5.6
2015-Jan-27 14:28N 67°49' E 014°25'221 6.5
2015-Jan-26 04:17N 70°23' E 021°53'  
2015-Jan-23 06:10N 67°40' E 014°18'5 8.2
2015-Jan-23 05:32N 67°35' E 014°20'8 8.2
2015-Jan-23 04:33N 67°27' E 014°25'8 7.6
2015-Jan-23 03:33N 67°19' E 014°19'8 7.7
2015-Jan-23 02:33N 67°13' E 014°08'9 8.5
2015-Jan-23 01:33N 67°06' E 013°57'12 8.4
2015-Jan-23 00:08N 66°58' E 013°33'37 8.0
2015-Jan-22 19:33N 66°24' E 012°59'85 8.2
2015-Jan-22 09:12N 65°05' E 011°47'6 8.2
2015-Jan-22 08:32N 65°01' E 011°39'8 8.2
2015-Jan-22 07:33N 64°55' E 011°24'9 8.7
2015-Jan-22 06:33N 64°49' E 011°09'  

Dump ship's entire track history